Terminal Aerodrome Forecast
Issued by NWS

Home | Current Version | Previous Version | Graphics & Text | Print | Product List | Glossary On
Versions: 1 2 3 4 5 6 7 8 9 10 11 12 13 14 15 16 17 18 19 20 21
428
FTUS43 KOAX 300229 AAB
TAFCDR
TAF AMD
KCDR 300229Z 3002/3024 15012KT P6SM VCSH FEW050 BKN120
     FM300600 17005KT P6SM SCT250
     FM302200 17009KT P6SM SCT050=

USA.gov is the U.S. government's official web portal to all federal, state and local government web resources and services.